sensor_id;sensor_type;location;lat;lon;timestamp;P1;durP1;ratioP1;P2;durP2;ratioP2
29516;SDS011;40993;50.594;8.664;2023-07-20T00:02:26;7.57;;;4.88;;
29516;SDS011;40993;50.594;8.664;2023-07-20T00:04:53;11.82;;;4.45;;
29516;SDS011;40993;50.594;8.664;2023-07-20T00:07:21;8.30;;;5.10;;
29516;SDS011;40993;50.594;8.664;2023-07-20T00:09:48;9.63;;;5.00;;
29516;SDS011;40993;50.594;8.664;2023-07-20T00:12:16;8.98;;;4.70;;
29516;SDS011;40993;50.594;8.664;2023-07-20T00:14:44;7.25;;;5.13;;
29516;SDS011;40993;50.594;8.664;2023-07-20T00:17:11;12.52;;;5.30;;
29516;SDS011;40993;50.594;8.664;2023-07-20T00:19:40;7.05;;;4.85;;
29516;SDS011;40993;50.594;8.664;2023-07-20T00:22:07;8.23;;;4.40;;
29516;SDS011;40993;50.594;8.664;2023-07-20T00:24:35;9.63;;;4.63;;
29516;SDS011;40993;50.594;8.664;2023-07-20T00:27:02;13.70;;;5.03;;
29516;SDS011;40993;50.594;8.664;2023-07-20T00:29:30;9.48;;;5.40;;
29516;SDS011;40993;50.594;8.664;2023-07-20T00:31:58;8.95;;;5.38;;
29516;SDS011;40993;50.594;8.664;2023-07-20T00:34:26;7.45;;;5.40;;
29516;SDS011;40993;50.594;8.664;2023-07-20T00:36:55;9.27;;;5.68;;
29516;SDS011;40993;50.594;8.664;2023-07-20T00:39:22;6.72;;;5.18;;
29516;SDS011;40993;50.594;8.664;2023-07-20T00:41:50;8.52;;;5.30;;
29516;SDS011;40993;50.594;8.664;2023-07-20T00:44:18;9.07;;;6.18;;
29516;SDS011;40993;50.594;8.664;2023-07-20T00:46:45;6.93;;;6.22;;
29516;SDS011;40993;50.594;8.664;2023-07-20T00:49:14;12.07;;;6.00;;
29516;SDS011;40993;50.594;8.664;2023-07-20T00:51:42;7.95;;;5.68;;
29516;SDS011;40993;50.594;8.664;2023-07-20T00:54:11;7.90;;;5.80;;
29516;SDS011;40993;50.594;8.664;2023-07-20T00:56:38;9.02;;;5.65;;
29516;SDS011;40993;50.594;8.664;2023-07-20T00:59:06;8.30;;;5.28;;
29516;SDS011;40993;50.594;8.664;2023-07-20T01:01:33;9.90;;;6.00;;
29516;SDS011;40993;50.594;8.664;2023-07-20T01:04:01;8.90;;;6.13;;
29516;SDS011;40993;50.594;8.664;2023-07-20T01:06:29;11.30;;;5.97;;
29516;SDS011;40993;50.594;8.664;2023-07-20T01:09:02;10.10;;;5.97;;
29516;SDS011;40993;50.594;8.664;2023-07-20T01:11:37;10.18;;;6.30;;
29516;SDS011;40993;50.594;8.664;2023-07-20T01:14:06;8.57;;;5.63;;
29516;SDS011;40993;50.594;8.664;2023-07-20T01:16:35;6.82;;;5.85;;
29516;SDS011;40993;50.594;8.664;2023-07-20T01:19:02;9.50;;;6.00;;
29516;SDS011;40993;50.594;8.664;2023-07-20T01:21:31;11.30;;;5.57;;
29516;SDS011;40993;50.594;8.664;2023-07-20T01:24:25;8.50;;;5.90;;
29516;SDS011;40993;50.594;8.664;2023-07-20T01:27:25;12.77;;;6.25;;
29516;SDS011;40993;50.594;8.664;2023-07-20T01:30:08;7.93;;;6.10;;
29516;SDS011;40993;50.594;8.664;2023-07-20T01:32:44;8.80;;;6.20;;
29516;SDS011;40993;50.594;8.664;2023-07-20T01:35:13;10.57;;;5.88;;
29516;SDS011;40993;50.594;8.664;2023-07-20T01:37:43;9.07;;;6.00;;
29516;SDS011;40993;50.594;8.664;2023-07-20T01:40:12;9.15;;;5.90;;
29516;SDS011;40993;50.594;8.664;2023-07-20T01:42:43;10.93;;;6.30;;
29516;SDS011;40993;50.594;8.664;2023-07-20T01:45:11;8.13;;;5.30;;
29516;SDS011;40993;50.594;8.664;2023-07-20T01:47:38;9.18;;;6.20;;
29516;SDS011;40993;50.594;8.664;2023-07-20T01:50:08;9.38;;;6.20;;
29516;SDS011;40993;50.594;8.664;2023-07-20T01:52:36;8.70;;;6.28;;
29516;SDS011;40993;50.594;8.664;2023-07-20T01:55:03;9.40;;;6.75;;
29516;SDS011;40993;50.594;8.664;2023-07-20T01:57:31;14.88;;;6.57;;
29516;SDS011;40993;50.594;8.664;2023-07-20T01:59:59;10.07;;;6.70;;
29516;SDS011;40993;50.594;8.664;2023-07-20T02:02:27;10.18;;;7.20;;
29516;SDS011;40993;50.594;8.664;2023-07-20T02:04:55;10.57;;;7.00;;
29516;SDS011;40993;50.594;8.664;2023-07-20T02:07:24;10.95;;;7.28;;
29516;SDS011;40993;50.594;8.664;2023-07-20T02:09:51;9.73;;;6.85;;
29516;SDS011;40993;50.594;8.664;2023-07-20T02:12:19;11.68;;;7.85;;
29516;SDS011;40993;50.594;8.664;2023-07-20T02:14:47;8.85;;;6.88;;
29516;SDS011;40993;50.594;8.664;2023-07-20T02:17:17;9.38;;;7.22;;
29516;SDS011;40993;50.594;8.664;2023-07-20T02:19:44;9.50;;;6.88;;
29516;SDS011;40993;50.594;8.664;2023-07-20T02:22:15;10.18;;;7.35;;
29516;SDS011;40993;50.594;8.664;2023-07-20T02:24:44;9.70;;;7.57;;
29516;SDS011;40993;50.594;8.664;2023-07-20T02:27:12;10.70;;;7.70;;
29516;SDS011;40993;50.594;8.664;2023-07-20T02:29:40;9.07;;;7.65;;
29516;SDS011;40993;50.594;8.664;2023-07-20T02:32:09;11.77;;;7.63;;
29516;SDS011;40993;50.594;8.664;2023-07-20T02:34:37;10.80;;;7.95;;
29516;SDS011;40993;50.594;8.664;2023-07-20T02:37:05;8.68;;;6.97;;
29516;SDS011;40993;50.594;8.664;2023-07-20T02:39:35;8.88;;;7.70;;
29516;SDS011;40993;50.594;8.664;2023-07-20T02:42:04;9.80;;;7.68;;
29516;SDS011;40993;50.594;8.664;2023-07-20T02:44:33;8.60;;;6.95;;
29516;SDS011;40993;50.594;8.664;2023-07-20T02:47:01;8.30;;;6.93;;
29516;SDS011;40993;50.594;8.664;2023-07-20T02:49:28;9.77;;;7.13;;
29516;SDS011;40993;50.594;8.664;2023-07-20T02:51:56;9.20;;;7.15;;
29516;SDS011;40993;50.594;8.664;2023-07-20T02:54:23;9.63;;;7.00;;
29516;SDS011;40993;50.594;8.664;2023-07-20T02:56:51;10.10;;;7.57;;
29516;SDS011;40993;50.594;8.664;2023-07-20T02:59:20;10.82;;;7.30;;
29516;SDS011;40993;50.594;8.664;2023-07-20T03:01:47;9.70;;;7.45;;
29516;SDS011;40993;50.594;8.664;2023-07-20T03:04:15;12.32;;;7.65;;
29516;SDS011;40993;50.594;8.664;2023-07-20T03:06:43;11.10;;;7.38;;
29516;SDS011;40993;50.594;8.664;2023-07-20T03:09:11;9.20;;;8.25;;
29516;SDS011;40993;50.594;8.664;2023-07-20T03:11:38;11.60;;;8.40;;
29516;SDS011;40993;50.594;8.664;2023-07-20T03:14:06;13.65;;;8.57;;
29516;SDS011;40993;50.594;8.664;2023-07-20T03:16:35;11.40;;;8.60;;
29516;SDS011;40993;50.594;8.664;2023-07-20T03:19:02;13.50;;;8.45;;
29516;SDS011;40993;50.594;8.664;2023-07-20T03:21:31;18.25;;;9.80;;
29516;SDS011;40993;50.594;8.664;2023-07-20T03:23:58;13.82;;;9.30;;
29516;SDS011;40993;50.594;8.664;2023-07-20T03:26:26;11.98;;;10.18;;
29516;SDS011;40993;50.594;8.664;2023-07-20T03:28:53;18.40;;;11.90;;
29516;SDS011;40993;50.594;8.664;2023-07-20T03:31:21;15.18;;;11.95;;
29516;SDS011;40993;50.594;8.664;2023-07-20T03:33:50;17.27;;;12.38;;
29516;SDS011;40993;50.594;8.664;2023-07-20T03:36:17;15.93;;;12.38;;
29516;SDS011;40993;50.594;8.664;2023-07-20T03:38:46;19.23;;;13.50;;
29516;SDS011;40993;50.594;8.664;2023-07-20T03:41:13;16.85;;;13.48;;
29516;SDS011;40993;50.594;8.664;2023-07-20T03:43:42;16.73;;;13.13;;
29516;SDS011;40993;50.594;8.664;2023-07-20T03:46:10;16.88;;;13.18;;
29516;SDS011;40993;50.594;8.664;2023-07-20T03:48:37;19.00;;;14.02;;
29516;SDS011;40993;50.594;8.664;2023-07-20T03:51:06;18.50;;;13.10;;
29516;SDS011;40993;50.594;8.664;2023-07-20T03:53:34;17.33;;;14.00;;
29516;SDS011;40993;50.594;8.664;2023-07-20T03:56:01;14.73;;;12.98;;
29516;SDS011;40993;50.594;8.664;2023-07-20T03:58:29;15.32;;;12.63;;
29516;SDS011;40993;50.594;8.664;2023-07-20T04:00:57;15.68;;;12.65;;
29516;SDS011;40993;50.594;8.664;2023-07-20T04:03:25;18.55;;;13.38;;
29516;SDS011;40993;50.594;8.664;2023-07-20T04:05:53;20.05;;;13.43;;
29516;SDS011;40993;50.594;8.664;2023-07-20T04:08:23;16.50;;;12.77;;
29516;SDS011;40993;50.594;8.664;2023-07-20T04:10:51;17.38;;;13.35;;
29516;SDS011;40993;50.594;8.664;2023-07-20T04:13:19;15.00;;;12.50;;
29516;SDS011;40993;50.594;8.664;2023-07-20T04:15:46;18.02;;;13.30;;
29516;SDS011;40993;50.594;8.664;2023-07-20T04:18:14;19.20;;;14.38;;
29516;SDS011;40993;50.594;8.664;2023-07-20T04:20:41;17.02;;;13.70;;
29516;SDS011;40993;50.594;8.664;2023-07-20T04:23:09;18.35;;;13.90;;
29516;SDS011;40993;50.594;8.664;2023-07-20T04:25:40;17.85;;;13.52;;
29516;SDS011;40993;50.594;8.664;2023-07-20T04:28:10;17.38;;;14.13;;
29516;SDS011;40993;50.594;8.664;2023-07-20T04:30:43;16.13;;;13.37;;
29516;SDS011;40993;50.594;8.664;2023-07-20T04:33:11;16.48;;;13.38;;
29516;SDS011;40993;50.594;8.664;2023-07-20T04:35:49;15.10;;;12.80;;
29516;SDS011;40993;50.594;8.664;2023-07-20T04:38:22;15.18;;;12.43;;
29516;SDS011;40993;50.594;8.664;2023-07-20T04:40:59;19.80;;;13.70;;
29516;SDS011;40993;50.594;8.664;2023-07-20T04:43:29;16.55;;;12.80;;
29516;SDS011;40993;50.594;8.664;2023-07-20T04:45:57;18.42;;;12.85;;
29516;SDS011;40993;50.594;8.664;2023-07-20T04:48:25;14.73;;;12.73;;
29516;SDS011;40993;50.594;8.664;2023-07-20T04:50:54;16.58;;;11.77;;
29516;SDS011;40993;50.594;8.664;2023-07-20T04:53:24;14.75;;;12.10;;
29516;SDS011;40993;50.594;8.664;2023-07-20T04:55:52;15.15;;;12.20;;
29516;SDS011;40993;50.594;8.664;2023-07-20T04:58:24;17.02;;;12.55;;
29516;SDS011;40993;50.594;8.664;2023-07-20T05:00:53;15.43;;;12.45;;
29516;SDS011;40993;50.594;8.664;2023-07-20T05:03:21;16.27;;;11.73;;
29516;SDS011;40993;50.594;8.664;2023-07-20T05:05:49;24.90;;;13.20;;
29516;SDS011;40993;50.594;8.664;2023-07-20T05:08:16;16.73;;;13.57;;
29516;SDS011;40993;50.594;8.664;2023-07-20T05:10:45;17.95;;;13.15;;
29516;SDS011;40993;50.594;8.664;2023-07-20T05:13:13;18.05;;;13.63;;
29516;SDS011;40993;50.594;8.664;2023-07-20T05:15:43;25.52;;;13.75;;
29516;SDS011;40993;50.594;8.664;2023-07-20T05:18:13;16.52;;;13.95;;
29516;SDS011;40993;50.594;8.664;2023-07-20T05:20:46;17.03;;;14.03;;
29516;SDS011;40993;50.594;8.664;2023-07-20T05:23:18;19.55;;;13.23;;
29516;SDS011;40993;50.594;8.664;2023-07-20T05:25:47;19.10;;;13.95;;
29516;SDS011;40993;50.594;8.664;2023-07-20T05:28:15;21.42;;;13.80;;
29516;SDS011;40993;50.594;8.664;2023-07-20T05:30:44;18.33;;;15.55;;
29516;SDS011;40993;50.594;8.664;2023-07-20T05:33:11;19.15;;;15.18;;
29516;SDS011;40993;50.594;8.664;2023-07-20T05:35:39;18.50;;;14.70;;
29516;SDS011;40993;50.594;8.664;2023-07-20T05:38:07;18.95;;;16.08;;
29516;SDS011;40993;50.594;8.664;2023-07-20T05:40:35;19.65;;;15.63;;
29516;SDS011;40993;50.594;8.664;2023-07-20T05:43:04;18.02;;;15.02;;
29516;SDS011;40993;50.594;8.664;2023-07-20T05:45:31;18.67;;;14.38;;
29516;SDS011;40993;50.594;8.664;2023-07-20T05:48:00;18.02;;;14.02;;
29516;SDS011;40993;50.594;8.664;2023-07-20T05:50:28;14.27;;;12.68;;
29516;SDS011;40993;50.594;8.664;2023-07-20T05:52:56;15.35;;;11.73;;
29516;SDS011;40993;50.594;8.664;2023-07-20T05:55:23;13.20;;;10.55;;
29516;SDS011;40993;50.594;8.664;2023-07-20T05:57:51;16.55;;;9.57;;
29516;SDS011;40993;50.594;8.664;2023-07-20T06:00:21;11.93;;;9.70;;
29516;SDS011;40993;50.594;8.664;2023-07-20T06:02:52;11.10;;;8.68;;
29516;SDS011;40993;50.594;8.664;2023-07-20T06:05:22;12.35;;;8.45;;
29516;SDS011;40993;50.594;8.664;2023-07-20T06:07:54;10.77;;;7.93;;
29516;SDS011;40993;50.594;8.664;2023-07-20T06:10:23;9.02;;;6.50;;
29516;SDS011;40993;50.594;8.664;2023-07-20T06:12:51;8.60;;;6.88;;
29516;SDS011;40993;50.594;8.664;2023-07-20T06:15:25;9.13;;;5.80;;
29516;SDS011;40993;50.594;8.664;2023-07-20T06:17:53;8.40;;;5.50;;
29516;SDS011;40993;50.594;8.664;2023-07-20T06:20:22;9.05;;;6.13;;
29516;SDS011;40993;50.594;8.664;2023-07-20T06:22:50;9.32;;;6.80;;
29516;SDS011;40993;50.594;8.664;2023-07-20T06:25:18;9.88;;;7.00;;
29516;SDS011;40993;50.594;8.664;2023-07-20T06:27:48;9.07;;;7.40;;
29516;SDS011;40993;50.594;8.664;2023-07-20T06:30:16;11.43;;;6.90;;
29516;SDS011;40993;50.594;8.664;2023-07-20T06:32:44;9.35;;;7.28;;
29516;SDS011;40993;50.594;8.664;2023-07-20T06:35:11;13.02;;;7.93;;
29516;SDS011;40993;50.594;8.664;2023-07-20T06:37:40;10.73;;;7.60;;
29516;SDS011;40993;50.594;8.664;2023-07-20T06:40:09;10.82;;;7.60;;
29516;SDS011;40993;50.594;8.664;2023-07-20T06:42:39;9.32;;;6.55;;
29516;SDS011;40993;50.594;8.664;2023-07-20T06:45:10;9.32;;;5.88;;
29516;SDS011;40993;50.594;8.664;2023-07-20T06:47:38;10.30;;;6.25;;
29516;SDS011;40993;50.594;8.664;2023-07-20T06:50:06;9.52;;;5.25;;
29516;SDS011;40993;50.594;8.664;2023-07-20T06:52:33;8.38;;;5.32;;
29516;SDS011;40993;50.594;8.664;2023-07-20T06:55:02;10.52;;;5.90;;
29516;SDS011;40993;50.594;8.664;2023-07-20T06:57:31;6.95;;;5.85;;
29516;SDS011;40993;50.594;8.664;2023-07-20T06:59:59;8.95;;;5.05;;
29516;SDS011;40993;50.594;8.664;2023-07-20T07:02:26;9.65;;;5.85;;
29516;SDS011;40993;50.594;8.664;2023-07-20T07:04:54;7.63;;;5.10;;
29516;SDS011;40993;50.594;8.664;2023-07-20T07:07:25;6.40;;;4.60;;
29516;SDS011;40993;50.594;8.664;2023-07-20T07:09:53;7.05;;;4.00;;
29516;SDS011;40993;50.594;8.664;2023-07-20T07:12:22;5.45;;;3.50;;
29516;SDS011;40993;50.594;8.664;2023-07-20T07:14:49;4.15;;;3.58;;
29516;SDS011;40993;50.594;8.664;2023-07-20T07:17:17;4.72;;;3.10;;
29516;SDS011;40993;50.594;8.664;2023-07-20T07:19:45;7.25;;;3.03;;
29516;SDS011;40993;50.594;8.664;2023-07-20T07:22:15;5.57;;;2.95;;
29516;SDS011;40993;50.594;8.664;2023-07-20T07:24:42;6.07;;;2.80;;
29516;SDS011;40993;50.594;8.664;2023-07-20T07:27:10;4.05;;;2.85;;
29516;SDS011;40993;50.594;8.664;2023-07-20T07:29:39;4.00;;;2.70;;
29516;SDS011;40993;50.594;8.664;2023-07-20T07:32:10;5.93;;;2.92;;
29516;SDS011;40993;50.594;8.664;2023-07-20T07:34:38;3.60;;;2.75;;
29516;SDS011;40993;50.594;8.664;2023-07-20T07:37:05;3.95;;;2.40;;
29516;SDS011;40993;50.594;8.664;2023-07-20T07:39:33;4.22;;;2.50;;
29516;SDS011;40993;50.594;8.664;2023-07-20T07:42:01;5.60;;;2.20;;
29516;SDS011;40993;50.594;8.664;2023-07-20T07:44:28;4.43;;;2.13;;
29516;SDS011;40993;50.594;8.664;2023-07-20T07:46:57;4.72;;;2.00;;
29516;SDS011;40993;50.594;8.664;2023-07-20T07:49:25;6.20;;;1.80;;
29516;SDS011;40993;50.594;8.664;2023-07-20T07:51:53;4.97;;;1.85;;
29516;SDS011;40993;50.594;8.664;2023-07-20T07:54:20;3.30;;;1.70;;
29516;SDS011;40993;50.594;8.664;2023-07-20T07:56:48;5.20;;;1.70;;
29516;SDS011;40993;50.594;8.664;2023-07-20T07:59:15;2.55;;;1.40;;
29516;SDS011;40993;50.594;8.664;2023-07-20T08:01:43;1.77;;;0.95;;
29516;SDS011;40993;50.594;8.664;2023-07-20T08:04:12;4.28;;;1.27;;
29516;SDS011;40993;50.594;8.664;2023-07-20T08:06:40;1.27;;;0.90;;
29516;SDS011;40993;50.594;8.664;2023-07-20T08:09:07;4.30;;;0.90;;
29516;SDS011;40993;50.594;8.664;2023-07-20T08:11:35;2.38;;;1.00;;
29516;SDS011;40993;50.594;8.664;2023-07-20T08:14:02;1.85;;;1.05;;
29516;SDS011;40993;50.594;8.664;2023-07-20T08:16:30;1.67;;;0.90;;
29516;SDS011;40993;50.594;8.664;2023-07-20T08:18:57;1.63;;;0.90;;
29516;SDS011;40993;50.594;8.664;2023-07-20T08:21:26;2.42;;;0.98;;
29516;SDS011;40993;50.594;8.664;2023-07-20T08:23:54;2.78;;;1.00;;
29516;SDS011;40993;50.594;8.664;2023-07-20T08:26:22;2.42;;;1.10;;
29516;SDS011;40993;50.594;8.664;2023-07-20T08:28:51;1.00;;;0.90;;
29516;SDS011;40993;50.594;8.664;2023-07-20T08:31:18;2.30;;;1.08;;
29516;SDS011;40993;50.594;8.664;2023-07-20T08:33:46;3.63;;;1.20;;
29516;SDS011;40993;50.594;8.664;2023-07-20T08:36:16;3.15;;;0.90;;
29516;SDS011;40993;50.594;8.664;2023-07-20T08:38:45;1.75;;;1.20;;
29516;SDS011;40993;50.594;8.664;2023-07-20T08:41:12;2.60;;;1.10;;
29516;SDS011;40993;50.594;8.664;2023-07-20T08:43:40;2.20;;;1.10;;
29516;SDS011;40993;50.594;8.664;2023-07-20T08:46:10;2.65;;;0.88;;
29516;SDS011;40993;50.594;8.664;2023-07-20T08:48:38;2.20;;;1.00;;
29516;SDS011;40993;50.594;8.664;2023-07-20T08:51:07;1.25;;;0.90;;
29516;SDS011;40993;50.594;8.664;2023-07-20T08:53:35;2.05;;;1.10;;
29516;SDS011;40993;50.594;8.664;2023-07-20T08:56:04;1.20;;;1.00;;
29516;SDS011;40993;50.594;8.664;2023-07-20T08:58:32;2.22;;;1.00;;
29516;SDS011;40993;50.594;8.664;2023-07-20T09:01:01;1.92;;;0.82;;
29516;SDS011;40993;50.594;8.664;2023-07-20T09:03:29;5.70;;;0.80;;
29516;SDS011;40993;50.594;8.664;2023-07-20T09:05:56;2.95;;;1.00;;
29516;SDS011;40993;50.594;8.664;2023-07-20T09:08:24;3.88;;;0.82;;
29516;SDS011;40993;50.594;8.664;2023-07-20T09:10:51;3.03;;;0.98;;
29516;SDS011;40993;50.594;8.664;2023-07-20T09:13:20;2.80;;;0.80;;
29516;SDS011;40993;50.594;8.664;2023-07-20T09:15:48;5.13;;;1.23;;
29516;SDS011;40993;50.594;8.664;2023-07-20T09:18:23;1.52;;;0.75;;
29516;SDS011;40993;50.594;8.664;2023-07-20T09:20:52;2.88;;;0.90;;
29516;SDS011;40993;50.594;8.664;2023-07-20T09:23:20;2.85;;;0.88;;
29516;SDS011;40993;50.594;8.664;2023-07-20T09:25:47;3.30;;;0.80;;
29516;SDS011;40993;50.594;8.664;2023-07-20T09:28:17;1.88;;;0.70;;
29516;SDS011;40993;50.594;8.664;2023-07-20T09:30:46;3.70;;;0.88;;
29516;SDS011;40993;50.594;8.664;2023-07-20T09:33:21;1.50;;;0.77;;
29516;SDS011;40993;50.594;8.664;2023-07-20T09:35:51;0.90;;;0.68;;
29516;SDS011;40993;50.594;8.664;2023-07-20T09:38:21;1.33;;;0.85;;
29516;SDS011;40993;50.594;8.664;2023-07-20T09:40:50;0.52;;;0.50;;
29516;SDS011;40993;50.594;8.664;2023-07-20T09:45:52;0.73;;;0.70;;
29516;SDS011;40993;50.594;8.664;2023-07-20T09:48:24;1.73;;;0.77;;
29516;SDS011;40993;50.594;8.664;2023-07-20T09:50:56;3.22;;;0.70;;
29516;SDS011;40993;50.594;8.664;2023-07-20T09:53:24;3.25;;;0.75;;
29516;SDS011;40993;50.594;8.664;2023-07-20T09:55:52;3.40;;;0.65;;
29516;SDS011;40993;50.594;8.664;2023-07-20T09:58:21;0.85;;;0.57;;
29516;SDS011;40993;50.594;8.664;2023-07-20T10:00:49;0.80;;;0.63;;
29516;SDS011;40993;50.594;8.664;2023-07-20T10:03:22;2.42;;;0.77;;
29516;SDS011;40993;50.594;8.664;2023-07-20T10:05:52;1.40;;;0.90;;
29516;SDS011;40993;50.594;8.664;2023-07-20T10:08:21;1.33;;;0.77;;
29516;SDS011;40993;50.594;8.664;2023-07-20T10:10:54;1.23;;;0.60;;
29516;SDS011;40993;50.594;8.664;2023-07-20T10:13:27;0.95;;;0.75;;
29516;SDS011;40993;50.594;8.664;2023-07-20T10:18:29;1.40;;;0.80;;
29516;SDS011;40993;50.594;8.664;2023-07-20T10:20:58;5.45;;;0.88;;
29516;SDS011;40993;50.594;8.664;2023-07-20T10:23:29;1.17;;;0.80;;
29516;SDS011;40993;50.594;8.664;2023-07-20T10:25:57;1.92;;;0.90;;
29516;SDS011;40993;50.594;8.664;2023-07-20T10:28:26;1.73;;;1.00;;
29516;SDS011;40993;50.594;8.664;2023-07-20T10:30:54;2.20;;;1.00;;
29516;SDS011;40993;50.594;8.664;2023-07-20T10:33:22;7.13;;;0.95;;
29516;SDS011;40993;50.594;8.664;2023-07-20T10:35:51;2.08;;;0.90;;
29516;SDS011;40993;50.594;8.664;2023-07-20T10:38:19;2.25;;;0.90;;
29516;SDS011;40993;50.594;8.664;2023-07-20T10:40:53;1.85;;;1.00;;
29516;SDS011;40993;50.594;8.664;2023-07-20T10:43:21;2.70;;;1.17;;
29516;SDS011;40993;50.594;8.664;2023-07-20T10:45:49;2.70;;;1.10;;
29516;SDS011;40993;50.594;8.664;2023-07-20T10:48:18;1.88;;;0.80;;
29516;SDS011;40993;50.594;8.664;2023-07-20T10:53:39;2.95;;;1.15;;
29516;SDS011;40993;50.594;8.664;2023-07-20T10:56:07;1.70;;;1.10;;
29516;SDS011;40993;50.594;8.664;2023-07-20T10:58:35;2.63;;;1.00;;
29516;SDS011;40993;50.594;8.664;2023-07-20T11:01:03;3.72;;;0.90;;
29516;SDS011;40993;50.594;8.664;2023-07-20T11:03:33;2.55;;;1.08;;
29516;SDS011;40993;50.594;8.664;2023-07-20T11:06:30;3.17;;;1.20;;
29516;SDS011;40993;50.594;8.664;2023-07-20T11:09:05;2.33;;;1.00;;
29516;SDS011;40993;50.594;8.664;2023-07-20T11:11:35;1.33;;;1.00;;
29516;SDS011;40993;50.594;8.664;2023-07-20T11:14:03;3.83;;;1.05;;
29516;SDS011;40993;50.594;8.664;2023-07-20T11:16:33;2.85;;;1.02;;
29516;SDS011;40993;50.594;8.664;2023-07-20T11:19:00;1.35;;;1.02;;
29516;SDS011;40993;50.594;8.664;2023-07-20T11:21:29;4.13;;;1.10;;
29516;SDS011;40993;50.594;8.664;2023-07-20T11:23:58;2.88;;;1.20;;
29516;SDS011;40993;50.594;8.664;2023-07-20T11:26:25;2.50;;;1.10;;
29516;SDS011;40993;50.594;8.664;2023-07-20T11:28:53;1.92;;;1.20;;
29516;SDS011;40993;50.594;8.664;2023-07-20T11:31:20;1.98;;;1.13;;
29516;SDS011;40993;50.594;8.664;2023-07-20T11:33:49;3.83;;;1.10;;
29516;SDS011;40993;50.594;8.664;2023-07-20T11:36:16;3.88;;;1.05;;
29516;SDS011;40993;50.594;8.664;2023-07-20T11:38:48;3.42;;;1.00;;
29516;SDS011;40993;50.594;8.664;2023-07-20T11:41:16;2.17;;;1.00;;
29516;SDS011;40993;50.594;8.664;2023-07-20T11:43:43;2.35;;;1.00;;
29516;SDS011;40993;50.594;8.664;2023-07-20T11:46:12;1.95;;;1.00;;
29516;SDS011;40993;50.594;8.664;2023-07-20T11:48:40;1.92;;;1.02;;
29516;SDS011;40993;50.594;8.664;2023-07-20T11:51:12;5.05;;;1.17;;
29516;SDS011;40993;50.594;8.664;2023-07-20T11:53:40;1.83;;;0.95;;
29516;SDS011;40993;50.594;8.664;2023-07-20T11:56:10;7.35;;;0.93;;
29516;SDS011;40993;50.594;8.664;2023-07-20T11:58:41;1.83;;;0.80;;
29516;SDS011;40993;50.594;8.664;2023-07-20T12:01:09;1.52;;;1.00;;
29516;SDS011;40993;50.594;8.664;2023-07-20T12:03:37;4.22;;;0.82;;
29516;SDS011;40993;50.594;8.664;2023-07-20T12:06:07;1.92;;;0.75;;
29516;SDS011;40993;50.594;8.664;2023-07-20T12:08:37;3.13;;;0.88;;
29516;SDS011;40993;50.594;8.664;2023-07-20T12:11:05;2.15;;;0.80;;
29516;SDS011;40993;50.594;8.664;2023-07-20T12:13:38;3.70;;;0.90;;
29516;SDS011;40993;50.594;8.664;2023-07-20T12:18:36;0.75;;;0.70;;
29516;SDS011;40993;50.594;8.664;2023-07-20T12:21:05;1.70;;;0.90;;
29516;SDS011;40993;50.594;8.664;2023-07-20T12:23:37;0.95;;;0.80;;
29516;SDS011;40993;50.594;8.664;2023-07-20T12:26:08;2.28;;;0.90;;
29516;SDS011;40993;50.594;8.664;2023-07-20T12:28:41;3.40;;;0.80;;
29516;SDS011;40993;50.594;8.664;2023-07-20T12:31:09;1.90;;;0.77;;
29516;SDS011;40993;50.594;8.664;2023-07-20T12:33:38;1.75;;;0.70;;
29516;SDS011;40993;50.594;8.664;2023-07-20T12:36:05;3.13;;;0.80;;
29516;SDS011;40993;50.594;8.664;2023-07-20T12:38:33;1.58;;;0.77;;
29516;SDS011;40993;50.594;8.664;2023-07-20T12:41:00;1.90;;;0.73;;
29516;SDS011;40993;50.594;8.664;2023-07-20T12:43:28;1.48;;;0.70;;
29516;SDS011;40993;50.594;8.664;2023-07-20T12:45:59;0.90;;;0.70;;
29516;SDS011;40993;50.594;8.664;2023-07-20T12:48:27;1.33;;;0.88;;
29516;SDS011;40993;50.594;8.664;2023-07-20T12:50:54;1.42;;;0.80;;
29516;SDS011;40993;50.594;8.664;2023-07-20T12:53:22;3.35;;;0.88;;
29516;SDS011;40993;50.594;8.664;2023-07-20T12:55:49;1.58;;;0.70;;
29516;SDS011;40993;50.594;8.664;2023-07-20T12:58:17;1.17;;;0.70;;
29516;SDS011;40993;50.594;8.664;2023-07-20T13:00:44;3.05;;;0.70;;
29516;SDS011;40993;50.594;8.664;2023-07-20T13:03:13;1.70;;;0.80;;
29516;SDS011;40993;50.594;8.664;2023-07-20T13:05:56;1.80;;;0.77;;
29516;SDS011;40993;50.594;8.664;2023-07-20T13:08:27;3.03;;;0.90;;
29516;SDS011;40993;50.594;8.664;2023-07-20T13:10:54;1.60;;;0.77;;
29516;SDS011;40993;50.594;8.664;2023-07-20T13:13:22;1.20;;;0.80;;
29516;SDS011;40993;50.594;8.664;2023-07-20T13:15:49;0.77;;;0.70;;
29516;SDS011;40993;50.594;8.664;2023-07-20T13:18:18;1.48;;;0.73;;
29516;SDS011;40993;50.594;8.664;2023-07-20T13:20:46;1.75;;;0.70;;
29516;SDS011;40993;50.594;8.664;2023-07-20T13:23:13;1.85;;;0.70;;
29516;SDS011;40993;50.594;8.664;2023-07-20T13:25:41;2.15;;;0.80;;
29516;SDS011;40993;50.594;8.664;2023-07-20T13:28:08;0.93;;;0.70;;
29516;SDS011;40993;50.594;8.664;2023-07-20T13:30:36;18.77;;;1.38;;
29516;SDS011;40993;50.594;8.664;2023-07-20T13:33:06;5.30;;;0.80;;
29516;SDS011;40993;50.594;8.664;2023-07-20T13:35:35;2.92;;;0.70;;
29516;SDS011;40993;50.594;8.664;2023-07-20T13:38:05;1.23;;;0.73;;
29516;SDS011;40993;50.594;8.664;2023-07-20T13:40:33;2.85;;;0.80;;
29516;SDS011;40993;50.594;8.664;2023-07-20T13:43:01;2.40;;;0.80;;
29516;SDS011;40993;50.594;8.664;2023-07-20T13:45:29;2.80;;;0.80;;
29516;SDS011;40993;50.594;8.664;2023-07-20T13:47:56;2.42;;;0.88;;
29516;SDS011;40993;50.594;8.664;2023-07-20T13:50:24;3.13;;;0.90;;
29516;SDS011;40993;50.594;8.664;2023-07-20T13:53:07;7.28;;;0.90;;
29516;SDS011;40993;50.594;8.664;2023-07-20T13:55:37;7.03;;;0.90;;
29516;SDS011;40993;50.594;8.664;2023-07-20T13:58:08;3.55;;;0.93;;
29516;SDS011;40993;50.594;8.664;2023-07-20T14:00:39;3.33;;;0.80;;
29516;SDS011;40993;50.594;8.664;2023-07-20T14:03:06;3.30;;;0.80;;
29516;SDS011;40993;50.594;8.664;2023-07-20T14:05:37;2.60;;;0.90;;
29516;SDS011;40993;50.594;8.664;2023-07-20T14:08:08;1.25;;;0.70;;
29516;SDS011;40993;50.594;8.664;2023-07-20T14:10:36;2.33;;;0.77;;
29516;SDS011;40993;50.594;8.664;2023-07-20T14:13:24;1.02;;;0.80;;
29516;SDS011;40993;50.594;8.664;2023-07-20T14:16:11;2.13;;;0.90;;
29516;SDS011;40993;50.594;8.664;2023-07-20T14:18:39;5.22;;;0.73;;
29516;SDS011;40993;50.594;8.664;2023-07-20T14:21:07;1.13;;;0.80;;
29516;SDS011;40993;50.594;8.664;2023-07-20T14:23:36;3.78;;;0.70;;
29516;SDS011;40993;50.594;8.664;2023-07-20T14:26:03;4.50;;;0.80;;
29516;SDS011;40993;50.594;8.664;2023-07-20T14:28:32;1.40;;;0.85;;
29516;SDS011;40993;50.594;8.664;2023-07-20T14:31:00;2.45;;;0.98;;
29516;SDS011;40993;50.594;8.664;2023-07-20T14:33:27;3.53;;;0.90;;
29516;SDS011;40993;50.594;8.664;2023-07-20T14:35:55;1.40;;;0.80;;
29516;SDS011;40993;50.594;8.664;2023-07-20T14:38:22;3.30;;;0.80;;
29516;SDS011;40993;50.594;8.664;2023-07-20T14:40:51;2.70;;;0.75;;
29516;SDS011;40993;50.594;8.664;2023-07-20T14:43:19;3.55;;;1.92;;
29516;SDS011;40993;50.594;8.664;2023-07-20T14:45:46;1.60;;;1.02;;
29516;SDS011;40993;50.594;8.664;2023-07-20T14:48:14;1.17;;;0.90;;
29516;SDS011;40993;50.594;8.664;2023-07-20T14:50:42;2.80;;;0.90;;
29516;SDS011;40993;50.594;8.664;2023-07-20T14:53:11;3.88;;;1.17;;
29516;SDS011;40993;50.594;8.664;2023-07-20T14:55:44;2.50;;;1.07;;
29516;SDS011;40993;50.594;8.664;2023-07-20T14:58:13;1.67;;;1.00;;
29516;SDS011;40993;50.594;8.664;2023-07-20T15:00:40;1.20;;;0.90;;
29516;SDS011;40993;50.594;8.664;2023-07-20T15:03:08;30.42;;;2.30;;